»·PEaware :: SKW4633 KABQ-KDEN

SKW4633 :: KABQ-KDEN

FLIGHT INFORMATION

Flight Status: Arrived
Operator:
SkyWest Airlines
More flights by this operator :: More flights under this callsign
Pilot: Alfredo R. (12181)
Aircraft: CANADAIR CL-600 CRJ-200
(CRJ2)
More flights by this aircraft type
Origin: KABQ Albuquerque Intl Sunport
United States
Destination: KDEN Denver Intl
United States
More flights between these airports :: More routes between these airports
Route: ATOMK3 ATOMK GNDLA TBARR2
File this flight plan on PilotEdge
Remarks: RMK / SIMBRIEF
Altitude:
(Current/Filed)
31,000ft
Speed:
(Current/Filed)
427kts
Departed: 14-Mar-21 02:15 PM
Arrived: 14-Mar-21 03:19 PM
Distance/Time
Traveled:
303nm/1:04
Distance/Time
To Go:
Arrived

Flight Plot

Page will automatically refresh every two minutes.

Flight plan parsing failed; only flown route is shown


Map Options




Map Legend


Flown Route
Filed Route
Departure Airport
Arrival Airport
Navaid (VOR, NDB)
Fix

Horizontal Profiles

Position Reports

Time Latitude Longitude Heading Altitude Ground
Speed
14-Mar-21 13:11 35.046889 -106.615887 4 5359ft 0kts
14-Mar-21 13:12 35.046889 -106.615887 4 5359ft 0kts
14-Mar-21 13:13 35.046889 -106.615887 4 5359ft 0kts
14-Mar-21 13:14 35.046889 -106.615887 4 5359ft 0kts
14-Mar-21 13:15 35.046889 -106.615887 4 5359ft 0kts
14-Mar-21 13:16 35.046889 -106.615887 4 5359ft 0kts
14-Mar-21 13:17 35.046889 -106.615887 4 5359ft 0kts
14-Mar-21 13:18 35.046889 -106.615887 4 5359ft 0kts
14-Mar-21 13:19 35.046889 -106.615887 4 5359ft 0kts
14-Mar-21 13:20 35.046889 -106.615887 4 5359ft 0kts
14-Mar-21 13:21 35.046889 -106.615887 4 5359ft 0kts
14-Mar-21 13:22 35.046889 -106.615887 4 5359ft 0kts
14-Mar-21 13:23 35.046889 -106.615887 4 5359ft 0kts
14-Mar-21 13:24 35.046889 -106.615887 4 5359ft 0kts
14-Mar-21 13:25 35.046889 -106.615887 4 5359ft 0kts
14-Mar-21 13:26 35.046889 -106.615887 4 5359ft 0kts
14-Mar-21 13:27 35.046889 -106.615887 4 5359ft 0kts
14-Mar-21 13:28 35.046889 -106.615887 4 5359ft 0kts
14-Mar-21 13:29 35.046889 -106.615887 4 5359ft 0kts
14-Mar-21 13:30 35.046889 -106.615887 4 5359ft 0kts
14-Mar-21 13:31 35.046889 -106.615887 4 5359ft 0kts
14-Mar-21 13:32 35.046889 -106.615887 4 5359ft 0kts
14-Mar-21 13:33 35.046889 -106.615887 4 5359ft 0kts
14-Mar-21 13:34 35.046889 -106.615887 4 5359ft 0kts
14-Mar-21 13:35 35.046889 -106.615887 4 5359ft 0kts
14-Mar-21 13:36 35.046889 -106.615887 4 5359ft 0kts
14-Mar-21 13:37 35.046889 -106.615887 4 5359ft 0kts
14-Mar-21 13:38 35.046889 -106.615887 4 5359ft 0kts
14-Mar-21 13:39 35.046889 -106.615887 4 5359ft 0kts
14-Mar-21 13:40 35.046889 -106.615887 4 5359ft 0kts
14-Mar-21 13:41 35.046889 -106.615887 4 5359ft 0kts
14-Mar-21 13:42 35.046889 -106.615887 4 5359ft 0kts
14-Mar-21 13:43 35.046889 -106.615887 4 5359ft 0kts
14-Mar-21 13:44 35.046889 -106.615887 4 5359ft 0kts
14-Mar-21 13:45 35.046889 -106.615887 4 5359ft 0kts
14-Mar-21 13:46 35.046889 -106.615887 4 5359ft 0kts
14-Mar-21 13:47 35.046889 -106.615887 4 5359ft 0kts
14-Mar-21 13:48 35.046889 -106.615887 4 5359ft 0kts
14-Mar-21 13:49 35.046889 -106.615887 4 5359ft 0kts
14-Mar-21 13:50 35.046889 -106.615887 4 5359ft 0kts
14-Mar-21 13:51 35.046889 -106.615887 4 5359ft 0kts
14-Mar-21 13:52 35.046889 -106.615887 4 5359ft 0kts
14-Mar-21 13:53 35.046848 -106.615892 4 5359ft 2kts
14-Mar-21 13:54 35.046371 -106.616177 85 5359ft 2kts
14-Mar-21 13:55 35.046372 -106.615709 89 5359ft 0kts
14-Mar-21 13:56 35.046372 -106.615709 89 5359ft 0kts
14-Mar-21 13:57 35.046371 -106.615709 89 5359ft 0kts
14-Mar-21 13:58 35.046371 -106.615709 89 5359ft 0kts
14-Mar-21 13:59 35.046371 -106.615662 89 5359ft 0kts
14-Mar-21 14:00 35.046371 -106.615322 89 5359ft 0kts
14-Mar-21 14:01 35.046370 -106.615320 89 5359ft 0kts
14-Mar-21 14:02 35.046370 -106.615320 89 5359ft 0kts
14-Mar-21 14:03 35.046370 -106.615320 89 5359ft 0kts
14-Mar-21 14:04 35.046370 -106.615320 89 5359ft 0kts
14-Mar-21 14:05 35.046306 -106.614898 122 5359ft 6kts
14-Mar-21 14:06 35.045392 -106.613904 138 5359ft 8kts
14-Mar-21 14:07 35.042444 -106.613202 92 5359ft 9kts
14-Mar-21 14:08 35.042416 -106.608886 90 5359ft 8kts
14-Mar-21 14:09 35.042412 -106.608381 90 5359ft 0kts
14-Mar-21 14:10 35.042412 -106.608381 90 5359ft 0kts
14-Mar-21 14:11 35.042412 -106.608381 90 5359ft 0kts
14-Mar-21 14:12 35.042411 -106.607905 89 5359ft 5kts
14-Mar-21 14:13 35.041057 -106.607905 225 5359ft 21kts
14-Mar-21 14:14 35.016709 -106.638927 232 6116ft 193kts
14-Mar-21 14:15 35.019119 -106.693578 305 9159ft 202kts
14-Mar-21 14:16 35.054823 -106.758905 299 12344ft 257kts
14-Mar-21 14:17 35.125083 -106.795322 344 15460ft 310kts
14-Mar-21 14:18 35.210017 -106.814267 347 18409ft 319kts
14-Mar-21 14:19 35.302346 -106.834388 347 20988ft 354kts
14-Mar-21 14:20 35.395458 -106.854701 348 22013ft 338kts
14-Mar-21 14:21 35.487065 -106.870630 352 24193ft 351kts
14-Mar-21 14:22 35.587547 -106.886072 350 26212ft 369kts
14-Mar-21 14:23 35.692258 -106.902208 349 28060ft 392kts
14-Mar-21 14:24 35.802102 -106.919204 349 29866ft 403kts
14-Mar-21 14:25 35.912061 -106.936243 349 30812ft 395kts
14-Mar-21 14:26 36.023979 -106.928890 5 30813ft 412kts
14-Mar-21 14:27 36.133422 -106.906473 5 30822ft 409kts
14-Mar-21 14:28 36.245624 -106.883296 4 30822ft 407kts
14-Mar-21 14:29 36.357100 -106.860230 5 30823ft 406kts
14-Mar-21 14:30 36.467834 -106.837212 5 30813ft 404kts
14-Mar-21 14:31 36.578578 -106.814160 5 30799ft 407kts
14-Mar-21 14:32 36.690901 -106.790688 5 31050ft 420kts
14-Mar-21 14:33 36.803595 -106.764670 9 32512ft 414kts
14-Mar-21 14:34 36.914341 -106.733691 9 33974ft 403kts
14-Mar-21 14:35 37.025467 -106.702565 9 34787ft 418kts
14-Mar-21 14:36 37.137705 -106.671008 9 34785ft 416kts
14-Mar-21 14:37 37.250128 -106.639291 9 34784ft 413kts
14-Mar-21 14:38 37.362475 -106.607528 9 34792ft 412kts
14-Mar-21 14:39 37.473380 -106.576046 10 34792ft 410kts
14-Mar-21 14:40 37.584595 -106.544403 10 34780ft 410kts
14-Mar-21 14:41 37.695823 -106.512638 10 34704ft 410kts
14-Mar-21 14:42 37.805753 -106.481292 11 34707ft 410kts
14-Mar-21 14:43 37.915441 -106.449788 10 34702ft 407kts
14-Mar-21 14:44 38.025432 -106.418169 11 34707ft 405kts
14-Mar-21 14:45 38.134256 -106.386792 11 34716ft 405kts
14-Mar-21 14:46 38.244418 -106.354927 10 34717ft 406kts
14-Mar-21 14:47 38.353834 -106.323250 12 34030ft 402kts
14-Mar-21 14:48 38.461303 -106.291913 13 32465ft 400kts
14-Mar-21 14:49 38.569885 -106.260213 14 30862ft 399kts
14-Mar-21 14:50 38.672164 -106.209907 35 29276ft 396kts
14-Mar-21 14:51 38.774559 -106.172823 356 27704ft 396kts
14-Mar-21 14:52 38.878775 -106.170828 16 26091ft 365kts
14-Mar-21 14:53 38.956429 -106.104709 56 24490ft 345kts
14-Mar-21 14:54 39.003794 -106.001680 56 22921ft 330kts
14-Mar-21 14:55 39.049934 -105.901087 56 21995ft 329kts
14-Mar-21 14:56 39.096968 -105.798395 55 21059ft 335kts
14-Mar-21 14:57 39.144046 -105.694363 56 20188ft 340kts
14-Mar-21 14:58 39.192323 -105.588605 56 19307ft 342kts
14-Mar-21 14:59 39.236808 -105.481847 58 18407ft 330kts
14-Mar-21 15:00 39.278050 -105.381391 58 17508ft 303kts
14-Mar-21 15:01 39.295965 -105.280361 81 16596ft 282kts
14-Mar-21 15:02 39.299963 -105.181325 81 15697ft 273kts
14-Mar-21 15:03 39.305640 -105.085528 81 14997ft 263kts
14-Mar-21 15:04 39.312860 -104.994964 75 14387ft 246kts
14-Mar-21 15:05 39.323673 -104.908416 75 13980ft 239kts
14-Mar-21 15:06 39.337903 -104.826550 71 13563ft 245kts
14-Mar-21 15:07 39.354444 -104.736404 71 12701ft 264kts
14-Mar-21 15:08 39.394163 -104.676522 359 11750ft 225kts
14-Mar-21 15:09 39.452948 -104.677736 0 10840ft 211kts
14-Mar-21 15:10 39.506359 -104.651973 1 9981ft 224kts
14-Mar-21 15:11 39.567969 -104.659906 355 9090ft 220kts
14-Mar-21 15:12 39.620582 -104.662913 1 8998ft 164kts
14-Mar-21 15:13 39.668458 -104.662527 1 8635ft 170kts
14-Mar-21 15:15 39.712721 -104.661985 358 7740ft 152kts
14-Mar-21 15:16 39.750855 -104.661500 355 6982ft 124kts
14-Mar-21 15:17 39.784814 -104.661144 353 6338ft 125kts
14-Mar-21 15:18 39.819087 -104.660677 352 5664ft 114kts
14-Mar-21 15:19 39.843788 -104.660530 357 5436ft 40kts
14-Mar-21 15:20 39.849152 -104.661669 330 5436ft 0kts
14-Mar-21 15:21 39.850305 -104.662327 347 5436ft 14kts
14-Mar-21 15:22 39.854723 -104.662314 359 5436ft 12kts
14-Mar-21 15:23 39.856755 -104.663888 266 5436ft 12kts
14-Mar-21 15:24 39.857288 -104.665480 357 5436ft 2kts
14-Mar-21 15:25 39.857620 -104.665485 359 5436ft 0kts
14-Mar-21 15:26 39.857620 -104.665485 359 5436ft 0kts
14-Mar-21 15:27 39.857620 -104.665485 359 5436ft 0kts
14-Mar-21 15:28 39.857620 -104.665485 359 5436ft 0kts
14-Mar-21 15:29 39.857620 -104.665485 359 5436ft 0kts

Navigation Log

Ident Type
Flight plan parsing failed, navigation log unavailable